sensor_id;sensor_type;location;lat;lon;timestamp;temperature;humidity
25046;DHT22;13044;49.304;12.840;2024-01-07T00:02:21;5.20;99.90
25046;DHT22;13044;49.304;12.840;2024-01-07T00:04:48;5.20;99.90
25046;DHT22;13044;49.304;12.840;2024-01-07T00:07:15;5.10;99.90
25046;DHT22;13044;49.304;12.840;2024-01-07T00:09:42;5.10;99.90
25046;DHT22;13044;49.304;12.840;2024-01-07T00:12:08;5.10;99.90
25046;DHT22;13044;49.304;12.840;2024-01-07T00:14:35;5.00;99.90
25046;DHT22;13044;49.304;12.840;2024-01-07T00:17:02;5.10;99.90
25046;DHT22;13044;49.304;12.840;2024-01-07T00:19:29;5.00;99.90
25046;DHT22;13044;49.304;12.840;2024-01-07T00:22:01;5.00;99.90
25046;DHT22;13044;49.304;12.840;2024-01-07T00:24:28;5.00;99.90
25046;DHT22;13044;49.304;12.840;2024-01-07T00:26:55;4.90;99.90
25046;DHT22;13044;49.304;12.840;2024-01-07T00:29:22;4.90;99.90
25046;DHT22;13044;49.304;12.840;2024-01-07T00:31:49;4.90;99.90
25046;DHT22;13044;49.304;12.840;2024-01-07T00:34:16;4.90;99.90
25046;DHT22;13044;49.304;12.840;2024-01-07T00:36:43;4.90;99.90
25046;DHT22;13044;49.304;12.840;2024-01-07T00:39:10;4.90;99.90
25046;DHT22;13044;49.304;12.840;2024-01-07T00:41:37;4.90;99.90
25046;DHT22;13044;49.304;12.840;2024-01-07T00:44:04;4.90;99.90
25046;DHT22;13044;49.304;12.840;2024-01-07T00:46:31;4.90;99.90
25046;DHT22;13044;49.304;12.840;2024-01-07T00:48:58;4.90;99.90
25046;DHT22;13044;49.304;12.840;2024-01-07T00:51:25;4.90;99.90
25046;DHT22;13044;49.304;12.840;2024-01-07T00:53:52;4.80;99.90
25046;DHT22;13044;49.304;12.840;2024-01-07T00:56:18;4.80;99.90
25046;DHT22;13044;49.304;12.840;2024-01-07T00:58:45;4.90;99.90
25046;DHT22;13044;49.304;12.840;2024-01-07T01:01:12;4.80;99.90
25046;DHT22;13044;49.304;12.840;2024-01-07T01:03:39;4.80;99.90
25046;DHT22;13044;49.304;12.840;2024-01-07T01:06:06;4.80;99.90
25046;DHT22;13044;49.304;12.840;2024-01-07T01:08:33;4.80;99.90
25046;DHT22;13044;49.304;12.840;2024-01-07T01:11:00;4.80;99.90
25046;DHT22;13044;49.304;12.840;2024-01-07T01:13:27;4.80;99.90
25046;DHT22;13044;49.304;12.840;2024-01-07T01:15:53;4.70;99.90
25046;DHT22;13044;49.304;12.840;2024-01-07T01:18:22;4.70;99.90
25046;DHT22;13044;49.304;12.840;2024-01-07T01:20:49;4.70;99.90
25046;DHT22;13044;49.304;12.840;2024-01-07T01:23:16;4.70;99.90
25046;DHT22;13044;49.304;12.840;2024-01-07T01:25:42;4.70;99.90
25046;DHT22;13044;49.304;12.840;2024-01-07T01:28:10;4.70;99.90
25046;DHT22;13044;49.304;12.840;2024-01-07T01:30:36;4.70;99.90
25046;DHT22;13044;49.304;12.840;2024-01-07T01:33:04;4.60;99.90
25046;DHT22;13044;49.304;12.840;2024-01-07T01:35:31;4.60;99.90
25046;DHT22;13044;49.304;12.840;2024-01-07T01:37:58;4.60;99.90
25046;DHT22;13044;49.304;12.840;2024-01-07T01:40:25;4.50;99.90
25046;DHT22;13044;49.304;12.840;2024-01-07T01:42:51;4.50;99.90
25046;DHT22;13044;49.304;12.840;2024-01-07T01:45:18;4.50;99.90
25046;DHT22;13044;49.304;12.840;2024-01-07T01:47:46;4.50;99.90
25046;DHT22;13044;49.304;12.840;2024-01-07T01:50:14;4.50;99.90
25046;DHT22;13044;49.304;12.840;2024-01-07T01:52:41;4.50;99.90
25046;DHT22;13044;49.304;12.840;2024-01-07T01:55:09;4.50;99.90
25046;DHT22;13044;49.304;12.840;2024-01-07T01:57:36;4.50;99.90
25046;DHT22;13044;49.304;12.840;2024-01-07T02:00:06;4.50;99.90
25046;DHT22;13044;49.304;12.840;2024-01-07T02:02:34;4.50;99.90
25046;DHT22;13044;49.304;12.840;2024-01-07T02:05:05;4.40;99.90
25046;DHT22;13044;49.304;12.840;2024-01-07T02:07:32;4.40;99.90
25046;DHT22;13044;49.304;12.840;2024-01-07T02:10:00;4.30;99.90
25046;DHT22;13044;49.304;12.840;2024-01-07T02:12:27;4.30;99.90
25046;DHT22;13044;49.304;12.840;2024-01-07T02:14:54;4.30;99.90
25046;DHT22;13044;49.304;12.840;2024-01-07T02:17:21;4.30;99.90
25046;DHT22;13044;49.304;12.840;2024-01-07T02:19:48;4.30;99.90
25046;DHT22;13044;49.304;12.840;2024-01-07T02:22:15;4.20;99.90
25046;DHT22;13044;49.304;12.840;2024-01-07T02:24:42;4.20;99.90
25046;DHT22;13044;49.304;12.840;2024-01-07T02:27:09;4.20;99.90
25046;DHT22;13044;49.304;12.840;2024-01-07T02:29:35;4.20;99.90
25046;DHT22;13044;49.304;12.840;2024-01-07T02:32:03;4.20;99.90
25046;DHT22;13044;49.304;12.840;2024-01-07T02:34:30;4.20;99.90
25046;DHT22;13044;49.304;12.840;2024-01-07T02:36:57;4.10;99.90
25046;DHT22;13044;49.304;12.840;2024-01-07T02:39:24;4.00;99.90
25046;DHT22;13044;49.304;12.840;2024-01-07T02:41:53;4.00;99.90
25046;DHT22;13044;49.304;12.840;2024-01-07T02:44:20;4.00;99.90
25046;DHT22;13044;49.304;12.840;2024-01-07T02:46:47;3.90;99.90
25046;DHT22;13044;49.304;12.840;2024-01-07T02:49:14;3.90;99.90
25046;DHT22;13044;49.304;12.840;2024-01-07T02:51:41;3.90;99.90
25046;DHT22;13044;49.304;12.840;2024-01-07T02:54:09;3.80;99.90
25046;DHT22;13044;49.304;12.840;2024-01-07T02:56:36;3.80;99.90
25046;DHT22;13044;49.304;12.840;2024-01-07T02:59:03;3.70;99.90
25046;DHT22;13044;49.304;12.840;2024-01-07T03:01:29;3.70;99.90
25046;DHT22;13044;49.304;12.840;2024-01-07T03:03:57;3.70;99.90
25046;DHT22;13044;49.304;12.840;2024-01-07T03:06:26;3.60;99.90
25046;DHT22;13044;49.304;12.840;2024-01-07T03:08:54;3.70;99.90
25046;DHT22;13044;49.304;12.840;2024-01-07T03:11:21;3.60;99.90
25046;DHT22;13044;49.304;12.840;2024-01-07T03:13:48;3.60;99.90
25046;DHT22;13044;49.304;12.840;2024-01-07T03:16:25;3.60;99.90
25046;DHT22;13044;49.304;12.840;2024-01-07T03:18:52;3.60;99.90
25046;DHT22;13044;49.304;12.840;2024-01-07T03:21:21;3.50;99.90
25046;DHT22;13044;49.304;12.840;2024-01-07T03:23:50;3.50;99.90
25046;DHT22;13044;49.304;12.840;2024-01-07T03:26:19;3.40;99.90
25046;DHT22;13044;49.304;12.840;2024-01-07T03:28:47;3.40;99.90
25046;DHT22;13044;49.304;12.840;2024-01-07T03:31:16;3.40;99.90
25046;DHT22;13044;49.304;12.840;2024-01-07T03:33:43;3.40;99.90
25046;DHT22;13044;49.304;12.840;2024-01-07T03:36:12;3.50;99.90
25046;DHT22;13044;49.304;12.840;2024-01-07T03:38:40;3.50;99.90
25046;DHT22;13044;49.304;12.840;2024-01-07T03:41:08;3.50;99.90
25046;DHT22;13044;49.304;12.840;2024-01-07T03:43:35;3.50;99.90
25046;DHT22;13044;49.304;12.840;2024-01-07T03:46:02;3.50;99.90
25046;DHT22;13044;49.304;12.840;2024-01-07T03:48:29;3.40;99.90
25046;DHT22;13044;49.304;12.840;2024-01-07T03:50:56;3.40;99.90
25046;DHT22;13044;49.304;12.840;2024-01-07T03:53:23;3.40;99.90
25046;DHT22;13044;49.304;12.840;2024-01-07T03:55:50;3.40;99.90
25046;DHT22;13044;49.304;12.840;2024-01-07T03:58:17;3.40;99.90
25046;DHT22;13044;49.304;12.840;2024-01-07T04:00:43;3.40;99.90
25046;DHT22;13044;49.304;12.840;2024-01-07T04:03:11;3.40;99.90
25046;DHT22;13044;49.304;12.840;2024-01-07T04:05:38;3.40;99.90
25046;DHT22;13044;49.304;12.840;2024-01-07T04:08:05;3.40;99.90
25046;DHT22;13044;49.304;12.840;2024-01-07T04:10:32;3.40;99.90
25046;DHT22;13044;49.304;12.840;2024-01-07T04:12:58;3.30;99.90
25046;DHT22;13044;49.304;12.840;2024-01-07T04:15:25;3.30;99.90
25046;DHT22;13044;49.304;12.840;2024-01-07T04:17:52;3.30;99.90
25046;DHT22;13044;49.304;12.840;2024-01-07T04:20:20;3.20;99.90
25046;DHT22;13044;49.304;12.840;2024-01-07T04:22:47;3.20;99.90
25046;DHT22;13044;49.304;12.840;2024-01-07T04:25:14;3.20;99.90
25046;DHT22;13044;49.304;12.840;2024-01-07T04:27:41;3.20;99.90
25046;DHT22;13044;49.304;12.840;2024-01-07T04:30:08;3.20;99.90
25046;DHT22;13044;49.304;12.840;2024-01-07T04:32:36;3.20;99.90
25046;DHT22;13044;49.304;12.840;2024-01-07T04:35:03;3.20;99.90
25046;DHT22;13044;49.304;12.840;2024-01-07T04:37:30;3.20;99.90
25046;DHT22;13044;49.304;12.840;2024-01-07T04:39:57;3.10;99.90
25046;DHT22;13044;49.304;12.840;2024-01-07T04:42:24;3.10;99.90
25046;DHT22;13044;49.304;12.840;2024-01-07T04:44:51;3.10;99.90
25046;DHT22;13044;49.304;12.840;2024-01-07T04:47:28;3.00;99.90
25046;DHT22;13044;49.304;12.840;2024-01-07T04:49:57;3.00;99.90
25046;DHT22;13044;49.304;12.840;2024-01-07T04:52:25;3.00;99.90
25046;DHT22;13044;49.304;12.840;2024-01-07T04:54:53;3.00;99.90
25046;DHT22;13044;49.304;12.840;2024-01-07T04:57:20;3.00;99.90
25046;DHT22;13044;49.304;12.840;2024-01-07T04:59:49;2.90;99.90
25046;DHT22;13044;49.304;12.840;2024-01-07T05:02:16;2.90;99.90
25046;DHT22;13044;49.304;12.840;2024-01-07T05:04:43;2.80;99.90
25046;DHT22;13044;49.304;12.840;2024-01-07T05:07:10;2.80;99.90
25046;DHT22;13044;49.304;12.840;2024-01-07T05:09:37;2.90;99.90
25046;DHT22;13044;49.304;12.840;2024-01-07T05:12:05;2.90;99.90
25046;DHT22;13044;49.304;12.840;2024-01-07T05:14:32;2.90;99.90
25046;DHT22;13044;49.304;12.840;2024-01-07T05:17:00;2.90;99.90
25046;DHT22;13044;49.304;12.840;2024-01-07T05:19:26;2.90;99.90
25046;DHT22;13044;49.304;12.840;2024-01-07T05:21:54;2.80;99.90
25046;DHT22;13044;49.304;12.840;2024-01-07T05:24:21;2.80;99.90
25046;DHT22;13044;49.304;12.840;2024-01-07T05:26:48;2.80;99.90
25046;DHT22;13044;49.304;12.840;2024-01-07T05:29:14;2.80;99.90
25046;DHT22;13044;49.304;12.840;2024-01-07T05:31:41;2.80;99.90
25046;DHT22;13044;49.304;12.840;2024-01-07T05:34:08;2.70;99.90
25046;DHT22;13044;49.304;12.840;2024-01-07T05:36:36;2.80;99.90
25046;DHT22;13044;49.304;12.840;2024-01-07T05:39:03;2.70;99.90
25046;DHT22;13044;49.304;12.840;2024-01-07T05:41:31;2.70;99.90
25046;DHT22;13044;49.304;12.840;2024-01-07T05:43:58;2.70;99.90
25046;DHT22;13044;49.304;12.840;2024-01-07T05:46:24;2.70;99.90
25046;DHT22;13044;49.304;12.840;2024-01-07T05:48:51;2.70;99.90
25046;DHT22;13044;49.304;12.840;2024-01-07T05:51:18;2.70;99.90
25046;DHT22;13044;49.304;12.840;2024-01-07T05:53:45;2.70;99.90
25046;DHT22;13044;49.304;12.840;2024-01-07T05:56:12;2.70;99.90
25046;DHT22;13044;49.304;12.840;2024-01-07T05:58:40;2.60;99.90
25046;DHT22;13044;49.304;12.840;2024-01-07T06:01:07;2.60;99.90
25046;DHT22;13044;49.304;12.840;2024-01-07T06:03:35;2.50;99.90
25046;DHT22;13044;49.304;12.840;2024-01-07T06:06:03;2.50;99.90
25046;DHT22;13044;49.304;12.840;2024-01-07T06:08:30;2.50;99.90
25046;DHT22;13044;49.304;12.840;2024-01-07T06:10:57;2.60;99.90
25046;DHT22;13044;49.304;12.840;2024-01-07T06:13:24;2.50;99.90
25046;DHT22;13044;49.304;12.840;2024-01-07T06:15:52;2.50;99.90
25046;DHT22;13044;49.304;12.840;2024-01-07T06:18:19;2.50;99.90
25046;DHT22;13044;49.304;12.840;2024-01-07T06:20:46;2.50;99.90
25046;DHT22;13044;49.304;12.840;2024-01-07T06:23:13;2.50;99.90
25046;DHT22;13044;49.304;12.840;2024-01-07T06:25:40;2.50;99.90
25046;DHT22;13044;49.304;12.840;2024-01-07T06:28:08;2.40;99.90
25046;DHT22;13044;49.304;12.840;2024-01-07T06:30:36;2.40;99.90
25046;DHT22;13044;49.304;12.840;2024-01-07T06:33:04;2.50;99.90
25046;DHT22;13044;49.304;12.840;2024-01-07T06:35:31;2.50;99.90
25046;DHT22;13044;49.304;12.840;2024-01-07T06:37:58;2.40;99.90
25046;DHT22;13044;49.304;12.840;2024-01-07T06:40:25;2.40;99.90
25046;DHT22;13044;49.304;12.840;2024-01-07T06:42:52;2.40;99.90
25046;DHT22;13044;49.304;12.840;2024-01-07T06:45:19;2.40;99.90
25046;DHT22;13044;49.304;12.840;2024-01-07T06:47:46;2.40;99.90
25046;DHT22;13044;49.304;12.840;2024-01-07T06:50:13;2.40;99.90
25046;DHT22;13044;49.304;12.840;2024-01-07T06:52:40;2.30;99.90
25046;DHT22;13044;49.304;12.840;2024-01-07T06:55:07;2.30;99.90
25046;DHT22;13044;49.304;12.840;2024-01-07T06:57:34;2.20;99.90
25046;DHT22;13044;49.304;12.840;2024-01-07T07:00:02;2.20;99.90
25046;DHT22;13044;49.304;12.840;2024-01-07T07:02:29;2.10;99.90
25046;DHT22;13044;49.304;12.840;2024-01-07T07:04:56;2.20;99.90
25046;DHT22;13044;49.304;12.840;2024-01-07T07:07:23;2.10;99.90
25046;DHT22;13044;49.304;12.840;2024-01-07T07:09:50;2.20;99.90
25046;DHT22;13044;49.304;12.840;2024-01-07T07:12:18;2.20;99.90
25046;DHT22;13044;49.304;12.840;2024-01-07T07:14:45;2.20;99.90
25046;DHT22;13044;49.304;12.840;2024-01-07T07:17:13;2.20;99.90
25046;DHT22;13044;49.304;12.840;2024-01-07T07:19:41;2.20;99.90
25046;DHT22;13044;49.304;12.840;2024-01-07T07:22:11;2.20;99.90
25046;DHT22;13044;49.304;12.840;2024-01-07T07:24:42;2.20;99.90
25046;DHT22;13044;49.304;12.840;2024-01-07T07:27:09;2.20;99.90
25046;DHT22;13044;49.304;12.840;2024-01-07T07:29:36;2.10;99.90
25046;DHT22;13044;49.304;12.840;2024-01-07T07:32:03;2.20;99.90
25046;DHT22;13044;49.304;12.840;2024-01-07T07:34:30;2.10;99.90
25046;DHT22;13044;49.304;12.840;2024-01-07T07:36:57;2.10;99.90
25046;DHT22;13044;49.304;12.840;2024-01-07T07:39:24;2.00;99.90
25046;DHT22;13044;49.304;12.840;2024-01-07T07:41:51;2.00;99.90
25046;DHT22;13044;49.304;12.840;2024-01-07T07:44:18;1.90;99.90
25046;DHT22;13044;49.304;12.840;2024-01-07T07:46:45;1.90;99.90
25046;DHT22;13044;49.304;12.840;2024-01-07T07:49:12;2.00;99.90
25046;DHT22;13044;49.304;12.840;2024-01-07T07:51:39;2.00;99.90
25046;DHT22;13044;49.304;12.840;2024-01-07T07:54:06;1.90;99.90
25046;DHT22;13044;49.304;12.840;2024-01-07T07:56:33;1.90;99.90
25046;DHT22;13044;49.304;12.840;2024-01-07T07:59:02;1.90;99.90
25046;DHT22;13044;49.304;12.840;2024-01-07T08:01:29;1.80;99.90
25046;DHT22;13044;49.304;12.840;2024-01-07T08:03:56;1.80;99.90
25046;DHT22;13044;49.304;12.840;2024-01-07T08:06:23;1.80;99.90
25046;DHT22;13044;49.304;12.840;2024-01-07T08:08:50;1.80;99.90
25046;DHT22;13044;49.304;12.840;2024-01-07T08:11:17;1.80;99.90
25046;DHT22;13044;49.304;12.840;2024-01-07T08:13:45;1.70;99.90
25046;DHT22;13044;49.304;12.840;2024-01-07T08:16:11;1.70;99.90
25046;DHT22;13044;49.304;12.840;2024-01-07T08:18:38;1.70;99.90
25046;DHT22;13044;49.304;12.840;2024-01-07T08:21:05;1.70;99.90
25046;DHT22;13044;49.304;12.840;2024-01-07T08:23:32;1.70;99.90
25046;DHT22;13044;49.304;12.840;2024-01-07T08:25:59;1.70;99.90
25046;DHT22;13044;49.304;12.840;2024-01-07T08:28:26;1.70;99.90
25046;DHT22;13044;49.304;12.840;2024-01-07T08:30:53;1.70;99.90
25046;DHT22;13044;49.304;12.840;2024-01-07T08:33:20;1.80;99.90
25046;DHT22;13044;49.304;12.840;2024-01-07T08:35:47;1.70;99.90
25046;DHT22;13044;49.304;12.840;2024-01-07T08:38:14;1.70;99.90
25046;DHT22;13044;49.304;12.840;2024-01-07T08:40:41;1.60;99.90
25046;DHT22;13044;49.304;12.840;2024-01-07T08:43:08;1.70;99.90
25046;DHT22;13044;49.304;12.840;2024-01-07T08:45:35;1.60;99.90
25046;DHT22;13044;49.304;12.840;2024-01-07T08:48:02;1.60;99.90
25046;DHT22;13044;49.304;12.840;2024-01-07T08:50:29;1.70;99.90
25046;DHT22;13044;49.304;12.840;2024-01-07T08:52:56;1.60;99.90
25046;DHT22;13044;49.304;12.840;2024-01-07T08:55:23;1.70;99.90
25046;DHT22;13044;49.304;12.840;2024-01-07T08:57:50;1.60;99.90
25046;DHT22;13044;49.304;12.840;2024-01-07T09:00:18;1.60;99.90
25046;DHT22;13044;49.304;12.840;2024-01-07T09:02:45;1.60;99.90
25046;DHT22;13044;49.304;12.840;2024-01-07T09:05:13;1.60;99.90
25046;DHT22;13044;49.304;12.840;2024-01-07T09:07:40;1.60;99.90
25046;DHT22;13044;49.304;12.840;2024-01-07T09:10:07;1.60;99.90
25046;DHT22;13044;49.304;12.840;2024-01-07T09:12:39;1.60;99.90
25046;DHT22;13044;49.304;12.840;2024-01-07T09:15:07;1.60;99.90
25046;DHT22;13044;49.304;12.840;2024-01-07T09:17:37;1.60;99.90
25046;DHT22;13044;49.304;12.840;2024-01-07T09:20:05;1.50;99.90
25046;DHT22;13044;49.304;12.840;2024-01-07T09:22:34;1.60;99.90
25046;DHT22;13044;49.304;12.840;2024-01-07T09:25:03;1.60;99.90
25046;DHT22;13044;49.304;12.840;2024-01-07T09:27:30;1.50;99.90
25046;DHT22;13044;49.304;12.840;2024-01-07T09:29:58;1.50;99.90
25046;DHT22;13044;49.304;12.840;2024-01-07T09:32:25;1.60;99.90
25046;DHT22;13044;49.304;12.840;2024-01-07T09:34:52;1.60;99.90
25046;DHT22;13044;49.304;12.840;2024-01-07T09:37:20;1.60;99.90
25046;DHT22;13044;49.304;12.840;2024-01-07T09:39:46;1.50;99.90
25046;DHT22;13044;49.304;12.840;2024-01-07T09:42:16;1.50;99.90
25046;DHT22;13044;49.304;12.840;2024-01-07T09:44:44;1.60;99.90
25046;DHT22;13044;49.304;12.840;2024-01-07T09:47:13;1.60;99.90
25046;DHT22;13044;49.304;12.840;2024-01-07T09:49:42;1.50;99.90
25046;DHT22;13044;49.304;12.840;2024-01-07T09:52:10;1.50;99.90
25046;DHT22;13044;49.304;12.840;2024-01-07T09:54:39;1.50;99.90
25046;DHT22;13044;49.304;12.840;2024-01-07T09:57:09;1.60;99.90
25046;DHT22;13044;49.304;12.840;2024-01-07T09:59:37;1.60;99.90
25046;DHT22;13044;49.304;12.840;2024-01-07T10:02:05;1.50;99.90
25046;DHT22;13044;49.304;12.840;2024-01-07T10:04:33;1.50;99.90
25046;DHT22;13044;49.304;12.840;2024-01-07T10:07:00;1.50;99.90
25046;DHT22;13044;49.304;12.840;2024-01-07T10:09:33;1.50;99.90
25046;DHT22;13044;49.304;12.840;2024-01-07T10:12:00;1.50;99.90
25046;DHT22;13044;49.304;12.840;2024-01-07T10:14:29;1.50;99.90
25046;DHT22;13044;49.304;12.840;2024-01-07T10:16:59;1.50;99.90
25046;DHT22;13044;49.304;12.840;2024-01-07T10:19:26;1.50;99.90
25046;DHT22;13044;49.304;12.840;2024-01-07T10:22:04;1.40;99.90
25046;DHT22;13044;49.304;12.840;2024-01-07T10:24:36;1.40;99.90
25046;DHT22;13044;49.304;12.840;2024-01-07T10:27:08;1.40;99.90
25046;DHT22;13044;49.304;12.840;2024-01-07T10:29:35;1.50;99.90
25046;DHT22;13044;49.304;12.840;2024-01-07T10:32:03;1.50;99.90
25046;DHT22;13044;49.304;12.840;2024-01-07T10:34:32;1.50;99.90
25046;DHT22;13044;49.304;12.840;2024-01-07T10:37:03;1.50;99.90
25046;DHT22;13044;49.304;12.840;2024-01-07T10:39:33;1.50;99.90
25046;DHT22;13044;49.304;12.840;2024-01-07T10:42:01;1.50;99.90
25046;DHT22;13044;49.304;12.840;2024-01-07T10:44:33;1.50;99.90
25046;DHT22;13044;49.304;12.840;2024-01-07T10:47:00;1.50;99.90
25046;DHT22;13044;49.304;12.840;2024-01-07T10:49:31;1.50;99.90
25046;DHT22;13044;49.304;12.840;2024-01-07T10:52:06;1.50;99.90
25046;DHT22;13044;49.304;12.840;2024-01-07T10:54:35;1.50;99.90
25046;DHT22;13044;49.304;12.840;2024-01-07T10:57:24;1.50;99.90
25046;DHT22;13044;49.304;12.840;2024-01-07T10:59:56;1.50;99.90
25046;DHT22;13044;49.304;12.840;2024-01-07T11:02:24;1.50;99.90
25046;DHT22;13044;49.304;12.840;2024-01-07T11:05:09;1.40;99.90
25046;DHT22;13044;49.304;12.840;2024-01-07T11:07:46;1.50;99.90
25046;DHT22;13044;49.304;12.840;2024-01-07T11:10:25;1.40;99.90
25046;DHT22;13044;49.304;12.840;2024-01-07T11:13:08;1.40;99.90
25046;DHT22;13044;49.304;12.840;2024-01-07T11:18:18;1.40;99.90
25046;DHT22;13044;49.304;12.840;2024-01-07T11:20:46;1.40;99.90
25046;DHT22;13044;49.304;12.840;2024-01-07T11:23:33;1.40;99.90
25046;DHT22;13044;49.304;12.840;2024-01-07T11:26:03;1.40;99.90
25046;DHT22;13044;49.304;12.840;2024-01-07T11:28:46;1.40;99.90
25046;DHT22;13044;49.304;12.840;2024-01-07T11:31:16;1.40;99.90
25046;DHT22;13044;49.304;12.840;2024-01-07T11:34:03;1.40;99.90
25046;DHT22;13044;49.304;12.840;2024-01-07T11:36:31;1.40;99.90
25046;DHT22;13044;49.304;12.840;2024-01-07T11:39:03;1.40;99.90
25046;DHT22;13044;49.304;12.840;2024-01-07T11:41:33;1.40;99.90
25046;DHT22;13044;49.304;12.840;2024-01-07T11:44:01;1.40;99.90
25046;DHT22;13044;49.304;12.840;2024-01-07T11:46:32;1.40;99.90
25046;DHT22;13044;49.304;12.840;2024-01-07T11:49:00;1.40;99.90
25046;DHT22;13044;49.304;12.840;2024-01-07T11:51:28;1.50;99.90
25046;DHT22;13044;49.304;12.840;2024-01-07T11:53:59;1.50;99.90
25046;DHT22;13044;49.304;12.840;2024-01-07T11:56:28;1.40;99.90
25046;DHT22;13044;49.304;12.840;2024-01-07T11:58:55;1.50;99.90
25046;DHT22;13044;49.304;12.840;2024-01-07T12:01:25;1.50;99.90
25046;DHT22;13044;49.304;12.840;2024-01-07T12:03:53;1.60;99.90
25046;DHT22;13044;49.304;12.840;2024-01-07T12:06:20;1.60;99.90
25046;DHT22;13044;49.304;12.840;2024-01-07T12:08:47;1.60;99.90
25046;DHT22;13044;49.304;12.840;2024-01-07T12:11:15;1.60;99.90
25046;DHT22;13044;49.304;12.840;2024-01-07T12:13:43;1.60;99.90
25046;DHT22;13044;49.304;12.840;2024-01-07T12:16:10;1.60;99.90
25046;DHT22;13044;49.304;12.840;2024-01-07T12:18:40;1.60;99.90
25046;DHT22;13044;49.304;12.840;2024-01-07T12:21:08;1.60;99.90
25046;DHT22;13044;49.304;12.840;2024-01-07T12:23:36;1.60;99.90
25046;DHT22;13044;49.304;12.840;2024-01-07T12:26:09;1.50;99.90
25046;DHT22;13044;49.304;12.840;2024-01-07T12:28:40;1.60;99.90
25046;DHT22;13044;49.304;12.840;2024-01-07T12:31:07;1.60;99.90
25046;DHT22;13044;49.304;12.840;2024-01-07T12:33:37;1.60;99.90
25046;DHT22;13044;49.304;12.840;2024-01-07T12:36:06;1.70;99.90
25046;DHT22;13044;49.304;12.840;2024-01-07T12:38:36;1.70;99.90
25046;DHT22;13044;49.304;12.840;2024-01-07T12:41:05;1.60;99.90
25046;DHT22;13044;49.304;12.840;2024-01-07T12:43:32;1.60;99.90
25046;DHT22;13044;49.304;12.840;2024-01-07T12:45:59;1.60;99.90
25046;DHT22;13044;49.304;12.840;2024-01-07T12:48:32;1.60;99.90
25046;DHT22;13044;49.304;12.840;2024-01-07T12:51:00;1.50;99.90
25046;DHT22;13044;49.304;12.840;2024-01-07T12:53:27;1.50;99.90
25046;DHT22;13044;49.304;12.840;2024-01-07T12:55:55;1.50;99.90
25046;DHT22;13044;49.304;12.840;2024-01-07T12:58:22;1.50;99.90
25046;DHT22;13044;49.304;12.840;2024-01-07T13:00:49;1.50;99.90
25046;DHT22;13044;49.304;12.840;2024-01-07T13:03:16;1.50;99.90
25046;DHT22;13044;49.304;12.840;2024-01-07T13:05:47;1.60;99.90
25046;DHT22;13044;49.304;12.840;2024-01-07T13:08:17;1.60;99.90
25046;DHT22;13044;49.304;12.840;2024-01-07T13:10:53;1.60;99.90
25046;DHT22;13044;49.304;12.840;2024-01-07T13:13:20;1.60;99.90
25046;DHT22;13044;49.304;12.840;2024-01-07T13:15:47;1.50;99.90
25046;DHT22;13044;49.304;12.840;2024-01-07T13:18:15;1.50;99.90
25046;DHT22;13044;49.304;12.840;2024-01-07T13:20:42;1.40;99.90
25046;DHT22;13044;49.304;12.840;2024-01-07T13:23:09;1.40;99.90
25046;DHT22;13044;49.304;12.840;2024-01-07T13:25:36;1.40;99.90
25046;DHT22;13044;49.304;12.840;2024-01-07T13:28:03;1.40;99.90
25046;DHT22;13044;49.304;12.840;2024-01-07T13:30:30;1.40;99.90
25046;DHT22;13044;49.304;12.840;2024-01-07T13:32:57;1.30;99.90
25046;DHT22;13044;49.304;12.840;2024-01-07T13:35:26;1.30;99.90
25046;DHT22;13044;49.304;12.840;2024-01-07T13:37:54;1.30;99.90
25046;DHT22;13044;49.304;12.840;2024-01-07T13:40:21;1.30;99.90
25046;DHT22;13044;49.304;12.840;2024-01-07T13:42:48;1.20;99.90
25046;DHT22;13044;49.304;12.840;2024-01-07T13:45:18;1.20;99.90
25046;DHT22;13044;49.304;12.840;2024-01-07T13:47:49;1.20;99.90
25046;DHT22;13044;49.304;12.840;2024-01-07T13:50:16;1.20;99.90
25046;DHT22;13044;49.304;12.840;2024-01-07T13:52:44;1.20;99.90
25046;DHT22;13044;49.304;12.840;2024-01-07T13:55:11;1.20;99.90
25046;DHT22;13044;49.304;12.840;2024-01-07T13:57:38;1.20;99.90
25046;DHT22;13044;49.304;12.840;2024-01-07T14:00:06;1.10;99.90
25046;DHT22;13044;49.304;12.840;2024-01-07T14:02:37;1.10;99.90
25046;DHT22;13044;49.304;12.840;2024-01-07T14:05:05;1.10;99.90
25046;DHT22;13044;49.304;12.840;2024-01-07T14:07:33;1.00;99.90
25046;DHT22;13044;49.304;12.840;2024-01-07T14:10:00;1.10;99.90
25046;DHT22;13044;49.304;12.840;2024-01-07T14:12:30;1.00;99.90
25046;DHT22;13044;49.304;12.840;2024-01-07T14:14:58;1.00;99.90
25046;DHT22;13044;49.304;12.840;2024-01-07T14:17:27;1.00;99.90
25046;DHT22;13044;49.304;12.840;2024-01-07T14:19:54;1.00;99.90
25046;DHT22;13044;49.304;12.840;2024-01-07T14:22:21;0.90;99.90
25046;DHT22;13044;49.304;12.840;2024-01-07T14:24:49;0.90;99.90
25046;DHT22;13044;49.304;12.840;2024-01-07T14:27:16;0.90;99.90
25046;DHT22;13044;49.304;12.840;2024-01-07T14:29:43;0.90;99.90
25046;DHT22;13044;49.304;12.840;2024-01-07T14:32:11;0.90;99.90
25046;DHT22;13044;49.304;12.840;2024-01-07T14:34:39;0.90;99.90
25046;DHT22;13044;49.304;12.840;2024-01-07T14:37:10;0.90;99.90
25046;DHT22;13044;49.304;12.840;2024-01-07T14:39:38;0.90;99.90
25046;DHT22;13044;49.304;12.840;2024-01-07T14:42:05;0.90;99.90
25046;DHT22;13044;49.304;12.840;2024-01-07T14:44:32;0.80;99.90
25046;DHT22;13044;49.304;12.840;2024-01-07T14:47:13;0.90;99.90
25046;DHT22;13044;49.304;12.840;2024-01-07T14:49:41;0.80;99.90
25046;DHT22;13044;49.304;12.840;2024-01-07T14:52:09;0.80;99.90
25046;DHT22;13044;49.304;12.840;2024-01-07T14:54:36;0.80;99.90
25046;DHT22;13044;49.304;12.840;2024-01-07T14:57:04;0.80;99.90
25046;DHT22;13044;49.304;12.840;2024-01-07T14:59:33;0.80;99.90
25046;DHT22;13044;49.304;12.840;2024-01-07T15:02:02;0.80;99.90
25046;DHT22;13044;49.304;12.840;2024-01-07T15:04:30;0.80;99.90
25046;DHT22;13044;49.304;12.840;2024-01-07T15:06:57;0.80;99.90
25046;DHT22;13044;49.304;12.840;2024-01-07T15:09:25;0.90;99.90
25046;DHT22;13044;49.304;12.840;2024-01-07T15:11:54;0.80;99.90
25046;DHT22;13044;49.304;12.840;2024-01-07T15:14:21;0.80;99.90
25046;DHT22;13044;49.304;12.840;2024-01-07T15:16:48;0.80;99.90
25046;DHT22;13044;49.304;12.840;2024-01-07T15:19:20;0.90;99.90
25046;DHT22;13044;49.304;12.840;2024-01-07T15:21:50;0.80;99.90
25046;DHT22;13044;49.304;12.840;2024-01-07T15:24:18;0.90;99.90
25046;DHT22;13044;49.304;12.840;2024-01-07T15:26:45;0.80;99.90
25046;DHT22;13044;49.304;12.840;2024-01-07T15:29:12;0.80;99.90
25046;DHT22;13044;49.304;12.840;2024-01-07T15:31:39;0.70;99.90
25046;DHT22;13044;49.304;12.840;2024-01-07T15:34:06;0.80;99.90
25046;DHT22;13044;49.304;12.840;2024-01-07T15:36:33;0.70;99.90
25046;DHT22;13044;49.304;12.840;2024-01-07T15:39:01;0.70;99.90